Time;durP1;ratioP1;P1;durP2;ratioP2;P2;SDS_P1;SDS_P2;PMS_P1;PMS_P2;Temp;Humidity;BMP_temperature;BMP_pressure;BME280_temperature;BME280_humidity;BME280_pressure;Samples;Min_cycle;Max_cycle;Signal;HPM_P1;HPM_P2
2021/04/11 00:00:28;;;;;;;;;;;;;;;9.35;100.00;98126.13;5041962;28;19921;-81
2021/04/11 00:02:53;;;;;;;;;;;;;;;9.37;100.00;98126.91;5037229;28;19970;-81
2021/04/11 00:05:20;;;;;;;;;;;;;;;9.41;100.00;98129.28;5043207;28;19948;-82
2021/04/11 00:07:45;;;;;;;;;;;;;;;9.36;100.00;98117.53;5043075;28;19959;-79
2021/04/11 00:10:14;;;;;;;;;;;;;;;9.37;100.00;98121.75;5042785;28;20837;-81
2021/04/11 00:12:40;;;;;;;;;;;;;;;9.31;100.00;98112.59;5017579;28;19928;-81
2021/04/11 00:15:08;;;;;;;;;;;;;;;9.30;100.00;98115.22;5041289;28;19950;-81
2021/04/11 00:17:33;;;;;;;;;;;;;;;9.36;100.00;98117.53;5026410;28;20347;-81
2021/04/11 00:19:59;;;;;;;;;;;;;;;9.31;100.00;98107.44;5026333;28;19976;-81
2021/04/11 00:22:24;;;;;;;;;;;;;;;9.27;100.00;98110.22;5025825;28;19921;-81
2021/04/11 00:24:49;;;;;;;;;;;;;;;9.27;100.00;98095.63;5042893;28;19917;-81
2021/04/11 00:27:15;;;;;;;;;;;;;;;9.41;100.00;98106.16;5027303;28;20039;-81
2021/04/11 00:29:40;;;;;;;;;;;;;;;9.32;100.00;98093.69;5026597;28;19955;-80
2021/04/11 00:32:06;;;;;;;;;;;;;;;9.39;100.00;98095.09;5046662;28;19951;-81
2021/04/11 00:34:32;;;;;;;;;;;;;;;9.35;100.00;98093.59;5042879;28;19970;-80
2021/04/11 00:36:57;;;;;;;;;;;;;;;9.35;100.00;98095.28;5039932;28;19920;-81
2021/04/11 00:39:22;;;;;;;;;;;;;;;9.40;100.00;98096.78;5026441;28;19925;-81
2021/04/11 00:41:48;;;;;;;;;;;;;;;9.45;100.00;98091.47;5025315;28;20032;-80
2021/04/11 00:44:13;;;;;;;;;;;;;;;9.42;100.00;98078.75;5026164;28;19927;-82
2021/04/11 00:46:43;;;;;;;;;;;;;;;9.38;100.00;98074.63;5026724;28;19917;-81
2021/04/11 00:49:10;;;;;;;;;;;;;;;9.41;100.00;98072.75;5042384;28;19921;-81
2021/04/11 00:51:35;;;;;;;;;;;;;;;9.42;100.00;98068.47;5041066;28;19931;-81
2021/04/11 00:54:02;;;;;;;;;;;;;;;9.41;100.00;98071.91;5041569;28;20340;-81
2021/04/11 00:56:28;;;;;;;;;;;;;;;9.36;100.00;98073.84;5025329;28;21007;-81
2021/04/11 00:58:54;;;;;;;;;;;;;;;9.31;100.00;98065.50;5026250;28;19955;-81
2021/04/11 01:01:20;;;;;;;;;;;;;;;9.30;100.00;98066.41;5056856;28;20026;-81
2021/04/11 01:03:45;;;;;;;;;;;;;;;9.31;100.00;98062.94;5025636;28;19917;-80
2021/04/11 01:06:14;;;;;;;;;;;;;;;9.38;100.00;98065.19;5042422;28;19947;-81
2021/04/11 01:08:40;;;;;;;;;;;;;;;9.36;100.00;98066.16;5041582;28;20413;-81
2021/04/11 01:11:08;;;;;;;;;;;;;;;9.33;100.00;98056.00;5041758;28;19924;-81
2021/04/11 01:13:34;;;;;;;;;;;;;;;9.35;100.00;98067.03;5040176;28;19928;-81
2021/04/11 01:16:00;;;;;;;;;;;;;;;9.39;100.00;98066.84;5014913;28;19913;-80
2021/04/11 01:18:25;;;;;;;;;;;;;;;9.53;100.00;98060.28;5042651;28;19921;-80
2021/04/11 01:20:51;;;;;;;;;;;;;;;9.46;100.00;98062.28;5042683;28;19920;-80
2021/04/11 01:23:18;;;;;;;;;;;;;;;9.44;100.00;98053.78;5023473;28;19920;-81
2021/04/11 01:25:44;;;;;;;;;;;;;;;9.45;100.00;98054.66;5025466;28;20020;-80
2021/04/11 01:28:15;;;;;;;;;;;;;;;9.34;100.00;98053.34;5040830;28;19943;-80
2021/04/11 01:30:41;;;;;;;;;;;;;;;9.52;100.00;98049.16;5038370;28;20345;-80
2021/04/11 01:33:07;;;;;;;;;;;;;;;9.47;100.00;98051.13;5040145;28;20048;-81
2021/04/11 01:35:33;;;;;;;;;;;;;;;9.42;100.00;98047.91;5026030;28;19944;-81
2021/04/11 01:37:58;;;;;;;;;;;;;;;9.38;100.00;98036.91;5024007;28;20367;-81
2021/04/11 01:40:35;;;;;;;;;;;;;;;9.36;100.00;98035.31;5020980;28;19916;-81
2021/04/11 01:43:02;;;;;;;;;;;;;;;9.43;100.00;98034.16;5041826;28;19948;-81
2021/04/11 01:45:28;;;;;;;;;;;;;;;9.39;100.00;98037.75;5041134;28;19916;-81
2021/04/11 01:47:54;;;;;;;;;;;;;;;9.41;100.00;98035.94;5042489;28;19916;-80
2021/04/11 01:50:19;;;;;;;;;;;;;;;9.46;100.00;98033.19;5024746;28;20012;-81
2021/04/11 01:52:44;;;;;;;;;;;;;;;9.39;100.00;98022.31;5043264;28;19932;-81
2021/04/11 01:55:10;;;;;;;;;;;;;;;9.33;100.00;98025.19;5026649;28;19924;-81
2021/04/11 01:57:36;;;;;;;;;;;;;;;9.34;100.00;98019.13;5026431;28;19945;-81
2021/04/11 02:00:11;;;;;;;;;;;;;;;9.27;100.00;98017.72;5027332;28;19922;-80
2021/04/11 02:02:36;;;;;;;;;;;;;;;9.23;100.00;98013.59;5059637;28;20502;-81
2021/04/11 02:05:02;;;;;;;;;;;;;;;9.31;100.00;98012.38;5042783;28;19920;-81
2021/04/11 02:07:28;;;;;;;;;;;;;;;9.28;100.00;98014.25;5059575;28;20456;-81
2021/04/11 02:09:53;;;;;;;;;;;;;;;9.25;100.00;98001.53;5024925;28;19920;-81
2021/04/11 02:12:19;;;;;;;;;;;;;;;9.25;100.00;98004.94;5023874;28;19962;-81
2021/04/11 02:14:44;;;;;;;;;;;;;;;9.35;100.00;98001.09;5042765;28;19959;-81
2021/04/11 02:17:10;;;;;;;;;;;;;;;9.28;100.00;97996.25;5025751;28;19916;-81
2021/04/11 02:19:36;;;;;;;;;;;;;;;9.39;100.00;97996.63;5026792;28;19987;-81
2021/04/11 02:22:12;;;;;;;;;;;;;;;9.27;100.00;97992.84;5026094;28;19916;-81
2021/04/11 02:24:38;;;;;;;;;;;;;;;9.21;100.00;97991.41;5044696;28;19917;-81
2021/04/11 02:27:04;;;;;;;;;;;;;;;9.35;100.00;97989.94;5044055;28;19927;-81
2021/04/11 02:29:30;;;;;;;;;;;;;;;9.21;100.00;97988.84;5044625;28;19920;-81
2021/04/11 02:31:55;;;;;;;;;;;;;;;9.27;100.00;97987.72;5042687;28;19959;-81
2021/04/11 02:34:22;;;;;;;;;;;;;;;9.24;100.00;97987.00;5025684;28;20719;-81
2021/04/11 02:36:48;;;;;;;;;;;;;;;9.33;100.00;97984.06;5039989;28;19917;-81
2021/04/11 02:39:17;;;;;;;;;;;;;;;9.44;100.00;97984.41;5023533;28;19921;-81
2021/04/11 02:41:42;;;;;;;;;;;;;;;9.32;100.00;97979.81;5059816;28;19980;-81
2021/04/11 02:44:08;;;;;;;;;;;;;;;9.30;100.00;97985.00;5044154;28;20398;-81
2021/04/11 02:46:33;;;;;;;;;;;;;;;9.31;100.00;97988.44;5045517;28;20389;-81
2021/04/11 02:48:59;;;;;;;;;;;;;;;9.33;100.00;97982.31;5030579;28;19920;-81
2021/04/11 02:51:25;;;;;;;;;;;;;;;9.28;100.00;97978.28;5042690;28;19948;-81
2021/04/11 02:53:51;;;;;;;;;;;;;;;9.26;100.00;97980.06;5041507;28;19925;-81
2021/04/11 02:56:16;;;;;;;;;;;;;;;9.37;100.00;97968.44;5025402;28;20027;-81
2021/04/11 02:58:41;;;;;;;;;;;;;;;9.32;100.00;97969.53;5039249;28;20341;-81
2021/04/11 03:01:09;;;;;;;;;;;;;;;9.31;100.00;97978.16;5023535;28;19920;-81
2021/04/11 03:03:34;;;;;;;;;;;;;;;9.27;100.00;97972.31;5036115;28;19921;-81
2021/04/11 03:06:01;;;;;;;;;;;;;;;9.27;100.00;97976.63;5033166;28;19921;-81
2021/04/11 03:08:27;;;;;;;;;;;;;;;9.40;100.00;97976.00;5039100;28;19921;-82
2021/04/11 03:10:55;;;;;;;;;;;;;;;9.42;100.00;97971.66;5036589;28;20505;-81
2021/04/11 03:13:21;;;;;;;;;;;;;;;9.41;100.00;97977.66;5037518;28;20983;-81
2021/04/11 03:15:47;;;;;;;;;;;;;;;9.28;100.00;97975.69;5038206;28;20071;-81
2021/04/11 03:18:12;;;;;;;;;;;;;;;9.38;100.00;97979.56;5038802;28;20278;-80
2021/04/11 03:20:38;;;;;;;;;;;;;;;9.53;100.00;97989.13;5039674;28;20001;-81
2021/04/11 03:23:04;;;;;;;;;;;;;;;9.49;100.00;97981.63;5037945;28;19983;-80
2021/04/11 03:25:31;;;;;;;;;;;;;;;9.55;100.00;97987.34;5038223;28;20004;-82
2021/04/11 03:27:56;;;;;;;;;;;;;;;9.58;100.00;97987.22;5036502;28;19928;-81
2021/04/11 03:30:26;;;;;;;;;;;;;;;9.58;100.00;97994.13;5038053;28;19921;-81
2021/04/11 03:32:53;;;;;;;;;;;;;;;9.53;100.00;97988.31;5037207;28;19920;-81
2021/04/11 03:35:23;;;;;;;;;;;;;;;9.49;100.00;97987.63;5038702;28;20019;-81
2021/04/11 03:37:48;;;;;;;;;;;;;;;9.42;100.00;97994.78;5038609;28;19928;-81
2021/04/11 03:40:15;;;;;;;;;;;;;;;9.50;100.00;97983.31;5012946;28;19921;-81
2021/04/11 03:42:43;;;;;;;;;;;;;;;9.55;100.00;97992.47;5039339;28;19925;-82
2021/04/11 03:45:09;;;;;;;;;;;;;;;9.70;100.00;97985.84;5021146;28;19947;-80
2021/04/11 03:47:43;;;;;;;;;;;;;;;9.48;100.00;97985.94;5020672;28;19924;-80
2021/04/11 03:50:25;;;;;;;;;;;;;;;9.50;100.00;97988.47;5035207;28;20632;-80
2021/04/11 03:52:55;;;;;;;;;;;;;;;9.57;100.00;97985.53;5013798;28;20027;-80
2021/04/11 03:55:21;;;;;;;;;;;;;;;9.54;100.00;97983.13;5019054;28;19916;-79
2021/04/11 03:57:51;;;;;;;;;;;;;;;9.64;100.00;97981.78;5037759;28;20416;-80
2021/04/11 04:00:19;;;;;;;;;;;;;;;9.63;100.00;97985.28;5037553;28;19924;-80
2021/04/11 04:02:44;;;;;;;;;;;;;;;9.68;100.00;97997.09;5021841;28;19921;-80
2021/04/11 04:05:11;;;;;;;;;;;;;;;9.70;100.00;97998.69;5037476;28;20420;-80
2021/04/11 04:07:45;;;;;;;;;;;;;;;9.72;100.00;97994.31;5039200;28;20401;-80
2021/04/11 04:10:11;;;;;;;;;;;;;;;9.73;100.00;97990.84;5037648;28;20019;-80
2021/04/11 04:12:51;;;;;;;;;;;;;;;9.72;100.00;97994.31;5037987;28;20019;-80
2021/04/11 04:15:32;;;;;;;;;;;;;;;9.84;100.00;98003.22;5038328;28;20016;-80
2021/04/11 04:18:10;;;;;;;;;;;;;;;9.69;100.00;98002.16;5036247;28;20380;-80
2021/04/11 04:20:55;;;;;;;;;;;;;;;9.83;100.00;98004.13;5019657;28;20344;-80
2021/04/11 04:23:30;;;;;;;;;;;;;;;9.71;100.00;98002.91;5022136;28;20634;-80
2021/04/11 04:26:11;;;;;;;;;;;;;;;9.58;100.00;98010.34;5039162;28;20055;-80
2021/04/11 04:28:36;;;;;;;;;;;;;;;9.73;100.00;98010.56;5037725;28;19917;-80
2021/04/11 04:31:07;;;;;;;;;;;;;;;9.77;100.00;98017.25;5037097;28;19923;-80
2021/04/11 04:33:38;;;;;;;;;;;;;;;9.77;100.00;98012.13;5037742;28;19925;-80
2021/04/11 04:36:09;;;;;;;;;;;;;;;9.62;100.00;98014.47;5037946;28;20134;-80
2021/04/11 04:38:53;;;;;;;;;;;;;;;9.56;100.00;98017.31;5036530;28;19917;-79
2021/04/11 04:41:27;;;;;;;;;;;;;;;9.53;100.00;98019.16;5038539;28;19917;-80
2021/04/11 04:44:09;;;;;;;;;;;;;;;9.62;100.00;98017.03;5035932;28;19921;-80
2021/04/11 04:46:39;;;;;;;;;;;;;;;9.52;100.00;98023.47;5021700;28;19916;-80
2021/04/11 04:49:16;;;;;;;;;;;;;;;9.55;100.00;98028.47;5009266;28;19921;-80
2021/04/11 04:51:52;;;;;;;;;;;;;;;9.31;100.00;98026.97;5035135;28;19924;-80
2021/04/11 04:54:36;;;;;;;;;;;;;;;9.49;100.00;98035.59;5037231;28;19943;-80
2021/04/11 04:57:20;;;;;;;;;;;;;;;9.20;100.00;98032.56;5037426;28;19928;-79
2021/04/11 05:00:14;;;;;;;;;;;;;;;9.14;100.00;98040.50;5039170;28;19946;-80
2021/04/11 05:02:42;;;;;;;;;;;;;;;9.09;100.00;98033.00;5031304;28;19963;-79
2021/04/11 05:05:08;;;;;;;;;;;;;;;9.13;100.00;98044.81;5037484;28;19987;-80
2021/04/11 05:07:35;;;;;;;;;;;;;;;9.36;100.00;98027.59;5035390;28;20011;-80
2021/04/11 05:10:08;;;;;;;;;;;;;;;9.35;100.00;98043.91;5011616;28;19967;-80
2021/04/11 05:12:48;;;;;;;;;;;;;;;9.49;100.00;98033.03;5020105;28;19916;-80
2021/04/11 05:15:15;;;;;;;;;;;;;;;9.63;100.00;98036.69;5021207;28;19920;-79
2021/04/11 05:17:55;;;;;;;;;;;;;;;9.52;100.00;98044.03;5037085;28;19916;-80
2021/04/11 05:20:28;;;;;;;;;;;;;;;9.13;100.00;98041.41;5034380;28;19921;-79
2021/04/11 05:23:13;;;;;;;;;;;;;;;8.59;100.00;98057.25;5020775;28;20294;-79
2021/04/11 05:25:38;;;;;;;;;;;;;;;7.97;100.00;98071.50;5040416;28;19917;-80
2021/04/11 05:28:03;;;;;;;;;;;;;;;7.76;100.00;98069.75;5039078;28;19923;-79
2021/04/11 05:30:31;;;;;;;;;;;;;;;7.74;100.00;98081.78;5041258;28;20015;-80
2021/04/11 05:32:56;;;;;;;;;;;;;;;7.77;100.00;98084.22;5035805;28;19925;-79
2021/04/11 05:35:21;;;;;;;;;;;;;;;7.82;100.00;98074.63;5036122;28;19921;-79
2021/04/11 05:38:05;;;;;;;;;;;;;;;7.87;100.00;98079.63;5035837;28;20430;-80
2021/04/11 05:40:33;;;;;;;;;;;;;;;7.76;100.00;98080.00;5038101;28;20301;-79
2021/04/11 05:43:04;;;;;;;;;;;;;;;7.84;100.00;98075.41;5035553;28;20011;-80
2021/04/11 05:45:31;;;;;;;;;;;;;;;7.76;100.00;98077.44;5020905;28;19925;-79
2021/04/11 05:48:00;;;;;;;;;;;;;;;7.81;100.00;98088.34;5037544;28;20051;-81
2021/04/11 05:50:31;;;;;;;;;;;;;;;7.84;100.00;98093.34;5041559;28;19976;-80
2021/04/11 05:53:00;;;;;;;;;;;;;;;7.73;100.00;98100.56;5024458;28;19932;-80
2021/04/11 05:55:27;;;;;;;;;;;;;;;7.82;100.00;98102.81;5023071;28;19924;-80
2021/04/11 05:57:54;;;;;;;;;;;;;;;7.64;100.00;98101.75;5041506;28;19917;-80
2021/04/11 06:00:19;;;;;;;;;;;;;;;7.48;100.00;98101.44;5025195;28;19917;-79
2021/04/11 06:03:05;;;;;;;;;;;;;;;7.50;100.00;98109.06;5060917;28;19947;-79
2021/04/11 06:05:30;;;;;;;;;;;;;;;7.54;100.00;98114.03;5058572;28;19952;-80
2021/04/11 06:07:59;;;;;;;;;;;;;;;7.32;100.00;98110.50;5061335;28;20011;-80
2021/04/11 06:10:43;;;;;;;;;;;;;;;7.41;100.00;98110.22;5026105;28;19974;-80
2021/04/11 06:13:28;;;;;;;;;;;;;;;7.36;100.00;98109.53;5059368;28;19956;-80
2021/04/11 06:16:00;;;;;;;;;;;;;;;7.31;100.00;98112.25;5025076;28;19971;-80
2021/04/11 06:18:26;;;;;;;;;;;;;;;7.26;100.00;98111.56;5041516;28;20448;-80
2021/04/11 06:20:51;;;;;;;;;;;;;;;7.19;100.00;98124.63;5039751;28;20015;-80
2021/04/11 06:23:25;;;;;;;;;;;;;;;7.04;100.00;98129.34;5021175;28;19921;-80
2021/04/11 06:25:57;;;;;;;;;;;;;;;6.97;100.00;98140.66;5060013;28;19927;-80
2021/04/11 06:28:32;;;;;;;;;;;;;;;6.81;100.00;98147.13;5040668;28;19916;-80
2021/04/11 06:30:59;;;;;;;;;;;;;;;6.75;100.00;98160.09;5058432;28;19920;-80
2021/04/11 06:33:26;;;;;;;;;;;;;;;6.81;100.00;98165.06;5016598;28;19920;-79
2021/04/11 06:35:54;;;;;;;;;;;;;;;6.80;100.00;98169.34;5040739;28;19931;-80
2021/04/11 06:38:20;;;;;;;;;;;;;;;6.88;100.00;98182.72;5042968;28;19977;-80
2021/04/11 06:40:46;;;;;;;;;;;;;;;6.54;100.00;98182.88;5042147;28;19928;-80
2021/04/11 06:43:30;;;;;;;;;;;;;;;6.43;100.00;98185.78;5060047;28;19916;-80
2021/04/11 06:46:05;;;;;;;;;;;;;;;6.21;100.00;98185.53;5061751;28;20254;-80
2021/04/11 06:49:00;;;;;;;;;;;;;;;6.20;100.00;98185.56;5040273;28;19916;-80
2021/04/11 06:51:31;;;;;;;;;;;;;;;5.97;100.00;98178.50;4943059;28;19985;-80
2021/04/11 06:54:15;;;;;;;;;;;;;;;5.93;100.00;98177.75;5058721;28;20826;-80
2021/04/11 06:56:40;;;;;;;;;;;;;;;5.96;100.00;98174.28;5043154;28;19924;-80
2021/04/11 06:59:06;;;;;;;;;;;;;;;5.97;100.00;98173.41;5042833;28;20317;-80
2021/04/11 07:01:34;;;;;;;;;;;;;;;5.94;100.00;98187.09;5042071;28;19927;-79
2021/04/11 07:03:59;;;;;;;;;;;;;;;5.75;100.00;98209.72;5059679;28;20826;-81
2021/04/11 07:06:42;;;;;;;;;;;;;;;5.57;100.00;98213.56;5042125;28;20043;-81
2021/04/11 07:09:22;;;;;;;;;;;;;;;5.55;100.00;98215.31;5041429;28;19920;-79
2021/04/11 07:11:48;;;;;;;;;;;;;;;5.53;100.00;98218.78;5039616;28;20010;-80
2021/04/11 07:14:16;;;;;;;;;;;;;;;5.49;100.00;98214.63;5059022;28;20011;-79
2021/04/11 07:16:51;;;;;;;;;;;;;;;5.36;100.00;98204.72;5039576;28;19929;-80
2021/04/11 07:19:35;;;;;;;;;;;;;;;5.45;100.00;98208.72;5025498;28;19938;-80
2021/04/11 07:22:19;;;;;;;;;;;;;;;5.45;100.00;98217.25;5057736;28;20366;-79
2021/04/11 07:24:44;;;;;;;;;;;;;;;5.30;100.00;98227.81;5041260;28;19916;-79
2021/04/11 07:27:33;;;;;;;;;;;;;;;5.20;100.00;98241.66;5058112;28;20817;-80
2021/04/11 07:30:02;;;;;;;;;;;;;;;5.18;100.00;98234.03;5043677;28;20377;-79
2021/04/11 07:32:46;;;;;;;;;;;;;;;5.16;100.00;98242.63;5044677;28;19923;-79
2021/04/11 07:35:11;;;;;;;;;;;;;;;5.26;100.00;98254.28;5045080;28;20736;-79
2021/04/11 07:37:47;;;;;;;;;;;;;;;5.40;100.00;98248.84;5045105;28;19991;-79
2021/04/11 07:40:13;;;;;;;;;;;;;;;5.20;100.00;98250.16;5045305;28;19924;-80
2021/04/11 07:42:38;;;;;;;;;;;;;;;4.84;100.00;98267.13;5045308;28;19917;-79
2021/04/11 07:45:11;;;;;;;;;;;;;;;4.86;100.00;98272.16;5044687;28;19920;-80
2021/04/11 07:47:55;;;;;;;;;;;;;;;4.86;100.00;98270.47;5028650;28;20001;-80
2021/04/11 07:50:23;;;;;;;;;;;;;;;4.88;100.00;98278.94;5043739;28;19974;-79
2021/04/11 07:53:02;;;;;;;;;;;;;;;4.82;100.00;98290.09;5062754;28;20383;-79
2021/04/11 07:55:44;;;;;;;;;;;;;;;4.84;100.00;98287.53;5043356;28;20339;-80
2021/04/11 07:58:09;;;;;;;;;;;;;;;4.64;100.00;98289.63;5043716;28;19927;-80
2021/04/11 08:00:41;;;;;;;;;;;;;;;4.78;100.00;98288.47;5061626;28;19995;-79
2021/04/11 08:03:28;;;;;;;;;;;;;;;4.57;100.00;98279.53;5060943;28;19965;-80
2021/04/11 08:06:12;;;;;;;;;;;;;;;4.64;100.00;98274.31;5036986;28;19920;-80
2021/04/11 08:08:43;;;;;;;;;;;;;;;4.45;100.00;98278.91;5058708;28;19991;-79
2021/04/11 08:11:28;;;;;;;;;;;;;;;4.31;100.00;98286.81;5023537;28;19925;-79
2021/04/11 08:13:53;;;;;;;;;;;;;;;4.28;100.00;98287.72;5060062;28;19931;-80
2021/04/11 08:16:34;;;;;;;;;;;;;;;4.26;100.00;98288.63;5045026;28;20381;-78
2021/04/11 08:19:05;;;;;;;;;;;;;;;4.02;100.00;98295.00;5048579;28;19973;-80
2021/04/11 08:21:50;;;;;;;;;;;;;;;3.96;100.00;98306.13;5038952;28;19917;-80
2021/04/11 08:24:24;;;;;;;;;;;;;;;4.10;100.00;98314.38;5063487;28;20131;-80
2021/04/11 08:26:50;;;;;;;;;;;;;;;3.95;100.00;98319.75;5032505;28;20934;-79
2021/04/11 08:29:18;;;;;;;;;;;;;;;3.95;100.00;98319.75;5048458;28;19951;-80
2021/04/11 08:31:46;;;;;;;;;;;;;;;4.04;100.00;98318.72;5030171;28;19920;-80
2021/04/11 08:34:30;;;;;;;;;;;;;;;3.89;100.00;98319.84;5048893;28;19946;-83
2021/04/11 08:37:01;;;;;;;;;;;;;;;4.15;100.00;98317.72;5066088;28;19921;-80
2021/04/11 08:39:46;;;;;;;;;;;;;;;3.97;100.00;98334.13;5047425;28;19928;-79
2021/04/11 08:42:14;;;;;;;;;;;;;;;3.82;100.00;98347.09;5021608;28;19923;-81
2021/04/11 08:44:46;;;;;;;;;;;;;;;3.82;100.00;98353.91;5051592;28;19927;-81
2021/04/11 08:47:17;;;;;;;;;;;;;;;3.82;100.00;98349.66;5056723;28;19920;-80
2021/04/11 08:49:46;;;;;;;;;;;;;;;3.67;100.00;98355.84;5059577;28;19921;-81
2021/04/11 08:52:27;;;;;;;;;;;;;;;3.61;100.00;98366.09;5037574;28;19988;-80
2021/04/11 08:55:01;;;;;;;;;;;;;;;3.50;100.00;98367.94;5060383;28;19972;-81
2021/04/11 08:57:29;;;;;;;;;;;;;;;3.47;100.00;98362.91;5057673;28;19923;-81
2021/04/11 08:59:56;;;;;;;;;;;;;;;3.51;100.00;98364.53;5055062;28;20239;-85
2021/04/11 09:02:44;;;;;;;;;;;;;;;3.47;100.00;98361.19;5044334;28;20480;-83
2021/04/11 09:05:10;;;;;;;;;;;;;;;3.49;100.00;98372.22;5043979;28;20554;-82
2021/04/11 09:07:54;;;;;;;;;;;;;;;3.46;100.00;98379.03;5041626;28;19943;-82
2021/04/11 09:10:34;;;;;;;;;;;;;;;3.66;100.00;98374.50;5045141;28;19927;-82
2021/04/11 09:13:07;;;;;;;;;;;;;;;3.56;100.00;98398.41;5018263;28;19947;-83
2021/04/11 09:15:56;;;;;;;;;;;;;;;3.43;100.00;98397.72;5026011;28;19932;-82
2021/04/11 09:18:25;;;;;;;;;;;;;;;3.21;100.00;98409.88;5032484;28;19920;-82
2021/04/11 09:21:02;;;;;;;;;;;;;;;3.44;100.00;98416.38;5044068;28;20400;-82
2021/04/11 09:23:34;;;;;;;;;;;;;;;3.38;100.00;98413.94;5043963;28;19923;-82
2021/04/11 09:26:05;;;;;;;;;;;;;;;3.34;100.00;98413.13;5047149;28;19921;-83
2021/04/11 09:28:34;;;;;;;;;;;;;;;3.47;100.00;98417.19;5045575;28;20445;-83
2021/04/11 09:31:11;;;;;;;;;;;;;;;3.42;100.00;98430.81;5028934;28;19960;-83
2021/04/11 09:33:55;;;;;;;;;;;;;;;3.37;100.00;98428.34;5026288;28;19928;-82
2021/04/11 09:36:22;;;;;;;;;;;;;;;3.21;100.00;98425.13;5044390;28;19956;-83
2021/04/11 09:39:02;;;;;;;;;;;;;;;3.53;100.00;98439.19;5043964;28;20756;-83
2021/04/11 09:41:33;;;;;;;;;;;;;;;3.39;100.00;98438.50;5025376;28;19947;-83
2021/04/11 09:44:12;;;;;;;;;;;;;;;3.36;100.00;98424.13;5043106;28;19966;-82
2021/04/11 09:46:43;;;;;;;;;;;;;;;3.46;100.00;98440.13;5045976;28;19948;-82
2021/04/11 09:49:35;;;;;;;;;;;;;;;3.31;100.00;98448.78;5046991;28;19950;-83
2021/04/11 09:52:15;;;;;;;;;;;;;;;3.28;100.00;98444.56;5026564;28;20519;-82
2021/04/11 09:54:46;;;;;;;;;;;;;;;3.16;100.00;98444.72;5044744;28;19925;-82
2021/04/11 09:57:16;;;;;;;;;;;;;;;3.27;100.00;98453.06;5042479;28;19916;-82
2021/04/11 09:59:45;;;;;;;;;;;;;;;3.34;100.00;98459.75;5026739;28;19931;-82
2021/04/11 10:02:30;;;;;;;;;;;;;;;3.32;100.00;98460.66;5026138;28;20443;-83
2021/04/11 10:05:16;;;;;;;;;;;;;;;3.36;100.00;98454.66;5041190;28;19917;-82
2021/04/11 10:07:42;;;;;;;;;;;;;;;3.49;100.00;98474.03;5016534;28;19975;-81
2021/04/11 10:10:10;;;;;;;;;;;;;;;3.26;100.00;98481.94;5043601;28;19920;-81
2021/04/11 10:12:54;;;;;;;;;;;;;;;3.47;100.00;98485.09;5043522;28;19920;-81
2021/04/11 10:15:20;;;;;;;;;;;;;;;3.42;100.00;98482.59;5047718;28;20365;-81
2021/04/11 10:17:55;;;;;;;;;;;;;;;3.63;100.00;98468.75;5046256;28;19928;-82
2021/04/11 10:20:21;;;;;;;;;;;;;;;3.51;100.00;98471.44;5041443;28;20050;-81
2021/04/11 10:22:56;;;;;;;;;;;;;;;3.23;100.00;98466.69;5043075;28;19972;-82
2021/04/11 10:25:40;;;;;;;;;;;;;;;3.24;100.00;98482.78;5024720;28;19917;-82
2021/04/11 10:28:11;;;;;;;;;;;;;;;3.21;100.00;98483.66;5042944;28;19920;-82
2021/04/11 10:30:37;;;;;;;;;;;;;;;3.37;100.00;98468.22;5026892;28;19967;-82
2021/04/11 10:33:21;;;;;;;;;;;;;;;3.63;100.00;98470.47;5026622;28;19929;-79
2021/04/11 10:35:46;;;;;;;;;;;;;;;3.20;100.00;98487.06;5042917;28;19923;-81
2021/04/11 10:38:17;;;;;;;;;;;;;;;3.33;100.00;98481.00;5042722;28;20011;-81
2021/04/11 10:41:03;;;;;;;;;;;;;;;3.16;100.00;98499.84;5039804;28;20002;-81
2021/04/11 10:43:45;;;;;;;;;;;;;;;3.33;100.00;98492.84;5041996;28;20588;-82
2021/04/11 10:46:20;;;;;;;;;;;;;;;3.59;100.00;98492.56;5040319;28;19927;-81
2021/04/11 10:48:53;;;;;;;;;;;;;;;3.32;100.00;98486.94;5039164;28;19921;-82
2021/04/11 10:51:21;;;;;;;;;;;;;;;3.30;100.00;98488.66;5039661;28;19937;-81
2021/04/11 10:53:47;;;;;;;;;;;;;;;3.29;100.00;98509.03;5039932;28;20014;-81
2021/04/11 10:56:20;;;;;;;;;;;;;;;3.19;100.00;98504.91;5042019;28;19977;-82
2021/04/11 10:58:52;;;;;;;;;;;;;;;3.24;100.00;98509.09;5041709;28;19917;-82
2021/04/11 11:01:20;;;;;;;;;;;;;;;3.19;100.00;98515.91;5042194;28;19920;-81
2021/04/11 11:03:55;;;;;;;;;;;;;;;3.22;100.00;98507.44;5043650;28;19920;-81
2021/04/11 11:06:33;;;;;;;;;;;;;;;3.23;100.00;98509.09;5045168;28;19923;-82
2021/04/11 11:09:17;;;;;;;;;;;;;;;3.16;100.00;98521.03;5044815;28;19916;-81
2021/04/11 11:11:55;;;;;;;;;;;;;;;3.26;100.00;98531.97;5044258;28;19921;-82
2021/04/11 11:14:39;;;;;;;;;;;;;;;2.89;100.00;98553.50;5045207;28;20323;-81
2021/04/11 11:17:14;;;;;;;;;;;;;;;3.09;100.00;98539.75;5044257;28;20001;-82
2021/04/11 11:19:50;;;;;;;;;;;;;;;3.04;100.00;98549.16;5045966;28;19956;-81
2021/04/11 11:25:49;;;;;;;;;;;;;;;2.96;100.00;98559.38;5041315;28;19923;-82
2021/04/11 11:28:33;;;;;;;;;;;;;;;-144.34;100.00;60189.88;5029491;28;19960;-81
2021/04/11 11:30:59;;;;;;;;;;;;;;;-144.34;100.00;60189.88;5041963;28;19939;-81
2021/04/11 11:33:39;;;;;;;;;;;;;;;-144.34;100.00;60189.88;5038023;28;20728;-82
2021/04/11 11:36:11;;;;;;;;;;;;;;;-144.34;100.00;60189.88;5040406;28;19976;-82
2021/04/11 11:38:36;;;;;;;;;;;;;;;-144.34;100.00;60189.88;5038794;28;19920;-82
2021/04/11 11:41:08;;;;;;;;;;;;;;;-144.34;100.00;60189.88;5042693;28;19921;-83
2021/04/11 11:43:33;;;;;;;;;;;;;;;-144.34;100.00;60189.88;5045167;28;19982;-81
2021/04/11 11:46:04;;;;;;;;;;;;;;;-144.34;100.00;60189.88;5044555;28;19924;-80
2021/04/11 11:48:46;;;;;;;;;;;;;;;-144.34;100.00;60189.88;5042618;28;19920;-82
2021/04/11 11:51:30;;;;;;;;;;;;;;;-144.34;100.00;60189.88;5050398;28;19936;-80
2021/04/11 11:54:07;;;;;;;;;;;;;;;-144.34;100.00;60189.88;5063866;28;20104;-81
2021/04/11 11:56:35;;;;;;;;;;;;;;;-144.34;100.00;60189.88;5041101;28;20018;-81
2021/04/11 11:59:18;;;;;;;;;;;;;;;3.06;100.00;98611.03;5039955;28;20421;-82
2021/04/11 12:01:51;;;;;;;;;;;;;;;-144.34;100.00;60763.25;5043191;28;19966;-81
2021/04/11 12:04:33;;;;;;;;;;;;;;;-97.19;100.00;60189.88;5061252;28;19923;-83
2021/04/11 12:07:00;;;;;;;;;;;;;;;-144.34;100.00;60189.88;5047160;28;19978;-82
2021/04/11 12:09:34;;;;;;;;;;;;;;;-144.34;100.00;60189.88;5023030;28;20015;-82
2021/04/11 12:12:12;;;;;;;;;;;;;;;-144.34;100.00;60189.88;5041207;28;19927;-81
2021/04/11 12:14:53;;;;;;;;;;;;;;;-144.34;100.00;60189.88;5043340;28;20397;-82
2021/04/11 12:20:31;;;;;;;;;;;;;;;-144.34;100.00;113213.06;5052633;28;20341;-81
2021/04/11 12:22:59;;;;;;;;;;;;;;;-144.34;100.00;60189.88;5045813;28;19916;-81
2021/04/11 12:25:26;;;;;;;;;;;;;;;-144.34;100.00;60189.88;5059380;28;20005;-81
2021/04/11 12:27:51;;;;;;;;;;;;;;;-144.34;100.00;60189.88;5043768;28;19917;-82
2021/04/11 12:30:30;;;;;;;;;;;;;;;-144.34;100.00;60189.88;5042907;28;19927;-79
2021/04/11 12:32:56;;;;;;;;;;;;;;;-144.34;0.00;60189.88;5043882;28;19916;-81
2021/04/11 12:35:21;;;;;;;;;;;;;;;-144.34;100.00;60189.88;5041494;28;19966;-80
2021/04/11 12:37:56;;;;;;;;;;;;;;;-144.34;100.00;-14577.13;5059895;28;19920;-81
2021/04/11 12:40:32;;;;;;;;;;;;;;;2.61;100.00;-14577.38;5062768;28;20043;-81
2021/04/11 12:43:10;;;;;;;;;;;;;;;2.47;100.00;60189.88;5027846;28;19921;-81
2021/04/11 12:45:41;;;;;;;;;;;;;;;-144.34;100.00;77579.56;5041848;28;20402;-81
2021/04/11 12:48:06;;;;;;;;;;;;;;;2.44;100.00;98685.16;5027050;28;19928;-80
2021/04/11 12:50:45;;;;;;;;;;;;;;;2.44;100.00;60189.88;5060379;28;19920;-80
2021/04/11 12:53:10;;;;;;;;;;;;;;;2.51;95.25;77590.22;5042577;28;19924;-82
2021/04/11 12:55:39;;;;;;;;;;;;;;;2.51;100.00;98683.44;5041289;28;19928;-82
2021/04/11 12:58:23;;;;;;;;;;;;;;;2.55;95.27;98690.16;5019406;28;19928;-82
2021/04/11 13:00:51;;;;;;;;;;;;;;;2.62;100.00;76546.47;5061373;28;19920;-82
2021/04/11 13:03:19;;;;;;;;;;;;;;;2.50;100.00;98686.81;5044950;28;19936;-82
2021/04/11 13:05:50;;;;;;;;;;;;;;;2.45;100.00;98698.69;5045471;28;19916;-81
2021/04/11 13:08:16;;;;;;;;;;;;;;;2.68;100.00;98696.03;5042485;28;19931;-81
2021/04/11 13:10:51;;;;;;;;;;;;;;;2.78;100.00;98690.03;5041837;28;19917;-80